createdAt,value
2022-08-28T00:00:55.611Z,93.85
2022-08-28T00:03:22.796Z,95.09
2022-08-28T00:05:49.695Z,93.81
2022-08-28T00:08:17.322Z,94.21
2022-08-28T00:10:45.436Z,93.73
2022-08-28T00:13:18.868Z,93.43
2022-08-28T00:15:48.530Z,94.02
2022-08-28T00:18:15.791Z,94.87
2022-08-28T00:20:43.765Z,95.20
2022-08-28T00:23:10.757Z,92.40
2022-08-28T00:25:37.863Z,94.77
2022-08-28T00:28:09.121Z,94.38
2022-08-28T00:30:48.303Z,94.42
2022-08-28T00:33:27.352Z,93.41
2022-08-28T00:35:55.336Z,94.49
2022-08-28T00:38:23.494Z,93.05
2022-08-28T00:40:55.432Z,91.28
2022-08-28T00:43:37.056Z,89.48
2022-08-28T00:46:07.191Z,91.33
2022-08-28T00:48:34.130Z,92.42
2022-08-28T00:51:29.126Z,94.45
2022-08-28T00:53:58.937Z,94.57
2022-08-28T00:56:28.372Z,94.10
2022-08-28T00:58:58.361Z,96.33
2022-08-28T01:01:25.497Z,93.49
2022-08-28T01:03:52.566Z,92.74
2022-08-28T01:06:22.728Z,94.17
2022-08-28T01:08:50.606Z,95.07
2022-08-28T01:11:19.703Z,93.63
2022-08-28T01:13:48.667Z,92.90
2022-08-28T01:16:17.479Z,93.21
2022-08-28T01:18:46.271Z,92.85
2022-08-28T01:21:25.719Z,91.04
2022-08-28T01:24:02.724Z,88.81
2022-08-28T01:26:30.148Z,87.59
2022-08-28T01:28:59.431Z,87.86
2022-08-28T01:31:28.780Z,87.22
2022-08-28T01:33:56.265Z,86.44
2022-08-28T01:36:23.195Z,86.92
2022-08-28T01:38:56.133Z,88.86
2022-08-28T01:41:23.088Z,90.42
2022-08-28T01:43:50.018Z,92.78
2022-08-28T01:46:17.467Z,92.99
2022-08-28T01:48:44.830Z,93.64
2022-08-28T01:51:12.922Z,93.59
2022-08-28T01:53:41.581Z,84.65
2022-08-28T01:56:15.445Z,85.16
2022-08-28T01:58:42.527Z,90.37
2022-08-28T02:01:14.445Z,91.11
2022-08-28T02:03:43.402Z,92.16
2022-08-28T02:06:11.436Z,92.27
2022-08-28T02:08:38.366Z,93.40
2022-08-28T02:11:06.589Z,93.71
2022-08-28T02:13:35.183Z,92.97
2022-08-28T02:16:05.023Z,90.52
2022-08-28T02:18:32.328Z,86.13
2022-08-28T02:20:59.476Z,85.23
2022-08-28T02:23:26.456Z,87.41
2022-08-28T02:25:53.377Z,86.28
2022-08-28T02:28:20.326Z,84.25
2022-08-28T02:30:47.261Z,86.64
2022-08-28T02:33:14.926Z,85.83
2022-08-28T02:35:43.051Z,86.63
2022-08-28T02:38:10.487Z,85.57
2022-08-28T02:40:38.785Z,85.51
2022-08-28T02:43:05.959Z,84.99
2022-08-28T02:45:33.406Z,83.93
2022-08-28T02:48:02.023Z,84.73
2022-08-28T02:50:31.574Z,84.91
2022-08-28T02:52:58.776Z,83.91
2022-08-28T02:55:26.190Z,84.43
2022-08-28T02:57:54.845Z,85.44
2022-08-28T03:00:26.163Z,87.27
2022-08-28T03:02:53.488Z,89.17
2022-08-28T03:05:27.002Z,88.34
2022-08-28T03:07:54.055Z,88.12
2022-08-28T03:10:21.928Z,88.60
2022-08-28T03:12:49.491Z,90.31
2022-08-28T03:15:18.146Z,89.16
2022-08-28T03:17:45.092Z,90.33
2022-08-28T03:20:15.867Z,89.28
2022-08-28T03:23:01.640Z,89.76
2022-08-28T03:25:28.608Z,89.72
2022-08-28T03:27:56.486Z,88.57
2022-08-28T03:30:24.331Z,87.88
2022-08-28T03:32:51.466Z,88.79
2022-08-28T03:35:18.529Z,89.98
2022-08-28T03:37:45.483Z,89.78
2022-08-28T03:40:13.920Z,90.53
2022-08-28T03:42:41.107Z,87.23
2022-08-28T03:45:11.036Z,87.42
2022-08-28T03:47:40.072Z,84.27
2022-08-28T03:50:09.944Z,86.31
2022-08-28T03:52:39.753Z,85.65
2022-08-28T03:55:09.008Z,86.55
2022-08-28T03:57:36.881Z,86.94
2022-08-28T04:00:10.686Z,87.45
2022-08-28T04:02:37.649Z,87.27
2022-08-28T04:05:05.732Z,85.83
2022-08-28T04:09:59.721Z,85.13
2022-08-28T04:12:26.685Z,84.56
2022-08-28T04:14:55.190Z,84.57
2022-08-28T04:17:22.069Z,84.42
2022-08-28T04:19:52.804Z,84.39
2022-08-28T04:22:19.783Z,84.33
2022-08-28T04:24:46.740Z,84.10
2022-08-28T04:27:15.090Z,82.93
2022-08-28T04:29:41.951Z,83.21
2022-08-28T04:32:08.922Z,84.09
2022-08-28T04:34:37.789Z,84.42
2022-08-28T04:37:05.598Z,84.46
2022-08-28T04:39:33.323Z,85.45
2022-08-28T04:42:00.674Z,85.97
2022-08-28T04:44:27.646Z,85.61
2022-08-28T04:46:54.748Z,86.30
2022-08-28T04:49:23.185Z,87.01
2022-08-28T04:51:52.924Z,89.01
2022-08-28T04:54:20.672Z,89.30
2022-08-28T04:56:47.534Z,88.34
2022-08-28T04:59:14.517Z,87.98
2022-08-28T05:01:42.758Z,87.39
2022-08-28T05:04:11.617Z,87.52
2022-08-28T05:06:46.426Z,88.17
2022-08-28T05:09:16.252Z,89.80
2022-08-28T05:11:44.329Z,90.87
2022-08-28T05:14:16.297Z,89.75
2022-08-28T05:16:49.433Z,89.50
2022-08-28T05:19:18.506Z,89.25
2022-08-28T05:21:45.419Z,89.78
2022-08-28T05:24:13.972Z,89.46
2022-08-28T05:26:41.271Z,89.47
2022-08-28T05:29:10.032Z,89.77
2022-08-28T05:31:39.246Z,90.56
2022-08-28T05:34:07.534Z,90.78
2022-08-28T05:36:36.586Z,89.46
2022-08-28T05:39:06.544Z,90.22
2022-08-28T05:41:34.438Z,88.57
2022-08-28T05:44:04.852Z,87.66
2022-08-28T05:46:32.880Z,86.45
2022-08-28T05:49:06.651Z,84.92
2022-08-28T05:51:36.371Z,85.51
2022-08-28T05:54:03.976Z,85.79
2022-08-28T05:56:34.655Z,84.81
2022-08-28T05:59:04.374Z,85.09
2022-08-28T06:01:34.515Z,86.16
2022-08-28T06:04:08.876Z,84.76
2022-08-28T06:06:39.561Z,85.48
2022-08-28T06:09:12.492Z,86.92
2022-08-28T06:11:42.158Z,86.70
2022-08-28T06:14:13.719Z,85.04
2022-08-28T06:16:45.660Z,86.82
2022-08-28T06:19:13.451Z,85.78
2022-08-28T06:21:41.593Z,85.82
2022-08-28T06:24:10.561Z,85.99
2022-08-28T06:26:37.645Z,85.87
2022-08-28T06:29:07.859Z,86.16
2022-08-28T06:31:34.997Z,85.81
2022-08-28T06:34:02.308Z,85.65
2022-08-28T06:36:31.357Z,84.18
2022-08-28T06:39:00.218Z,85.05
2022-08-28T06:41:28.873Z,83.46
2022-08-28T06:43:56.480Z,82.65
2022-08-28T06:46:25.151Z,83.16
2022-08-28T06:48:52.871Z,83.37
2022-08-28T06:51:20.085Z,83.58
2022-08-28T06:53:50.109Z,82.83
2022-08-28T06:56:26.587Z,81.66
2022-08-28T06:58:56.338Z,83.60
2022-08-28T07:01:29.582Z,83.40
2022-08-28T07:04:00.072Z,82.78
2022-08-28T07:06:30.859Z,83.04
2022-08-28T07:08:57.791Z,82.54
2022-08-28T07:11:28.833Z,83.16
2022-08-28T07:13:57.076Z,84.10
2022-08-28T07:16:28.014Z,82.54
2022-08-28T07:18:55.118Z,81.00
2022-08-28T07:21:22.447Z,80.19
2022-08-28T07:23:50.116Z,77.28
2022-08-28T07:26:23.505Z,78.74
2022-08-28T07:28:51.873Z,76.68
2022-08-28T07:31:22.954Z,74.52
2022-08-28T07:33:53.531Z,72.99
2022-08-28T07:36:29.732Z,71.04
2022-08-28T07:38:59.151Z,71.82
2022-08-28T07:41:32.413Z,69.40
2022-08-28T07:44:18.592Z,69.38
2022-08-28T07:46:46.241Z,63.06
2022-08-28T07:49:17.246Z,65.04
2022-08-28T07:51:46.625Z,64.84
2022-08-28T07:54:17.596Z,66.00
2022-08-28T07:56:46.648Z,65.81
2022-08-28T07:59:16.875Z,65.91
2022-08-28T08:01:46.697Z,64.64
2022-08-28T08:04:16.298Z,67.59
2022-08-28T08:06:44.362Z,67.17
2022-08-28T08:09:14.140Z,65.81
2022-08-28T08:11:41.404Z,67.24
2022-08-28T08:14:08.830Z,65.05
2022-08-28T08:16:39.277Z,64.65
2022-08-28T08:19:10.144Z,65.90
2022-08-28T08:21:37.801Z,65.65
2022-08-28T08:24:04.980Z,64.48
2022-08-28T08:26:33.216Z,64.37
2022-08-28T08:29:00.901Z,63.27
2022-08-28T08:31:33.010Z,63.68
2022-08-28T08:34:04.867Z,64.19
2022-08-28T08:36:34.978Z,62.75
2022-08-28T08:39:01.987Z,63.79
2022-08-28T08:41:48.575Z,62.40
2022-08-28T08:44:40.488Z,62.82
2022-08-28T08:47:25.481Z,63.04
2022-08-28T08:50:05.534Z,63.19
2022-08-28T08:53:12.567Z,63.12
2022-08-28T08:55:46.516Z,61.21
2022-08-28T08:58:37.886Z,61.63
2022-08-28T09:01:13.683Z,60.68
2022-08-28T09:03:55.799Z,61.43
2022-08-28T09:06:52.854Z,60.48
2022-08-28T09:09:35.756Z,60.15
2022-08-28T09:12:06.000Z,60.92
2022-08-28T09:15:07.958Z,60.18
2022-08-28T09:17:36.624Z,59.52
2022-08-28T09:20:09.725Z,58.73
2022-08-28T09:22:44.023Z,59.35
2022-08-28T09:25:13.280Z,58.38
2022-08-28T09:27:47.750Z,58.63
2022-08-28T09:30:14.749Z,59.11
2022-08-28T09:32:44.610Z,57.79
2022-08-28T09:35:22.085Z,60.18
2022-08-28T09:37:48.930Z,58.16
2022-08-28T09:40:17.717Z,59.50
2022-08-28T09:43:28.103Z,57.41
2022-08-28T09:46:03.074Z,57.13
2022-08-28T09:48:44.538Z,55.85
2022-08-28T09:51:26.592Z,57.15
2022-08-28T09:53:56.398Z,55.78
2022-08-28T09:56:26.257Z,58.31
2022-08-28T09:58:57.934Z,58.69
2022-08-28T10:01:55.440Z,59.13
2022-08-28T10:04:32.993Z,58.31
2022-08-28T10:07:05.631Z,58.04
2022-08-28T10:09:55.064Z,57.76
2022-08-28T10:12:46.882Z,56.07
2022-08-28T10:15:23.025Z,58.37
2022-08-28T10:17:55.298Z,59.26
2022-08-28T10:20:37.535Z,59.59
2022-08-28T10:23:07.538Z,58.59
2022-08-28T10:26:09.874Z,59.52
2022-08-28T10:28:50.632Z,57.89
2022-08-28T10:31:37.199Z,56.46
2022-08-28T10:34:04.897Z,55.78
2022-08-28T10:36:35.123Z,55.64
2022-08-28T10:39:22.827Z,54.30
2022-08-28T10:41:54.978Z,54.98
2022-08-28T10:44:28.864Z,54.37
2022-08-28T10:46:58.117Z,56.44
2022-08-28T10:49:31.196Z,56.07
2022-08-28T10:52:16.316Z,55.29
2022-08-28T10:55:01.516Z,55.01
2022-08-28T10:57:39.458Z,55.58
2022-08-28T11:00:16.496Z,54.18
2022-08-28T11:02:50.238Z,56.03
2022-08-28T11:05:26.278Z,55.79
2022-08-28T11:08:01.118Z,53.23
2022-08-28T11:10:36.944Z,50.86
2022-08-28T11:13:06.632Z,51.32
2022-08-28T11:15:37.016Z,51.82
2022-08-28T11:18:16.485Z,53.02
2022-08-28T11:21:23.764Z,51.05
2022-08-28T11:24:00.204Z,52.59
2022-08-28T11:26:39.888Z,52.31
2022-08-28T11:29:06.840Z,53.57
2022-08-28T11:31:37.873Z,52.73
2022-08-28T11:34:06.362Z,53.00
2022-08-28T11:36:33.160Z,51.99
2022-08-28T11:39:17.794Z,51.74
2022-08-28T11:42:09.534Z,51.83
2022-08-28T11:44:45.028Z,52.82
2022-08-28T11:47:35.405Z,52.72
2022-08-28T11:50:17.703Z,53.43
2022-08-28T11:53:10.928Z,52.98
2022-08-28T11:56:05.883Z,53.56
2022-08-28T11:58:47.207Z,54.81
2022-08-28T12:01:28.278Z,55.05
2022-08-28T12:04:07.944Z,54.81
2022-08-28T12:07:13.475Z,54.65
2022-08-28T12:09:43.362Z,54.63
2022-08-28T12:12:45.163Z,54.94
2022-08-28T12:15:43.093Z,54.96
2022-08-28T12:18:12.757Z,52.35
2022-08-28T12:20:52.146Z,56.26
2022-08-28T12:23:58.875Z,56.98
2022-08-28T12:26:30.212Z,56.10
2022-08-28T12:28:59.966Z,55.41
2022-08-28T12:32:12.019Z,56.24
2022-08-28T12:34:59.946Z,56.70
2022-08-28T12:37:52.766Z,57.15
2022-08-28T12:40:34.592Z,57.22
2022-08-28T12:43:05.680Z,61.24
2022-08-28T12:45:38.683Z,65.84
2022-08-28T12:48:25.409Z,70.16
2022-08-28T12:51:05.308Z,74.99
2022-08-28T12:53:44.958Z,79.76
2022-08-28T12:56:14.514Z,82.51
2022-08-28T12:58:42.764Z,87.15
2022-08-28T13:01:14.517Z,86.33
2022-08-28T13:03:54.877Z,88.35
2022-08-28T13:06:26.966Z,90.67
2022-08-28T13:09:02.245Z,90.82
2022-08-28T13:11:36.499Z,91.47
2022-08-28T13:14:04.859Z,92.94
2022-08-28T13:16:41.396Z,91.75
2022-08-28T13:19:08.433Z,89.18
2022-08-28T13:21:47.322Z,90.88
2022-08-28T13:24:23.770Z,89.63
2022-08-28T13:27:04.467Z,91.14
2022-08-28T13:29:32.492Z,92.95
2022-08-28T13:32:18.314Z,93.52
2022-08-28T13:35:09.821Z,85.09
2022-08-28T13:37:50.506Z,93.36
2022-08-28T13:43:11.080Z,90.36
2022-08-28T13:45:43.564Z,93.62
2022-08-28T13:48:15.829Z,92.03
2022-08-28T13:50:47.552Z,91.85
2022-08-28T13:53:18.051Z,91.04
2022-08-28T13:55:46.241Z,89.81
2022-08-28T13:58:14.115Z,91.16
2022-08-28T14:00:44.879Z,93.57
2022-08-28T14:03:31.323Z,94.48
2022-08-28T14:05:58.229Z,95.34
2022-08-28T14:08:25.381Z,95.60
2022-08-28T14:10:52.247Z,96.05
2022-08-28T14:13:20.047Z,95.51
2022-08-28T14:15:47.649Z,82.85
2022-08-28T14:18:14.564Z,93.30
2022-08-28T14:20:41.504Z,92.80
2022-08-28T14:23:11.474Z,94.80
2022-08-28T14:25:46.887Z,95.40
2022-08-28T14:28:14.620Z,96.13
2022-08-28T14:30:50.521Z,95.30
2022-08-28T14:33:20.815Z,95.48
2022-08-28T14:35:49.210Z,92.00
2022-08-28T14:38:16.902Z,93.60
2022-08-28T14:40:44.800Z,93.91
2022-08-28T14:43:13.834Z,93.60
2022-08-28T14:45:49.685Z,92.84
2022-08-28T14:48:19.481Z,92.70
2022-08-28T14:50:48.298Z,91.62
2022-08-28T14:53:16.434Z,93.21
2022-08-28T14:55:45.748Z,94.01
2022-08-28T14:58:12.881Z,94.18
2022-08-28T15:00:42.453Z,94.88
2022-08-28T15:03:10.330Z,95.73
2022-08-28T15:05:37.313Z,95.83
2022-08-28T15:08:11.357Z,96.57
2022-08-28T15:10:39.650Z,96.26
2022-08-28T15:13:09.390Z,94.94
2022-08-28T15:15:39.685Z,98.11
2022-08-28T15:18:08.158Z,96.17
2022-08-28T15:20:44.377Z,97.30
2022-08-28T15:23:14.139Z,92.46
2022-08-28T15:25:41.804Z,94.40
2022-08-28T15:28:09.142Z,94.05
2022-08-28T15:30:36.995Z,97.51
2022-08-28T15:33:04.059Z,97.37
2022-08-28T15:35:31.278Z,97.55
2022-08-28T15:37:58.275Z,94.35
2022-08-28T15:40:43.790Z,97.80
2022-08-28T15:43:10.823Z,98.05
2022-08-28T15:45:39.485Z,95.95
2022-08-28T15:48:08.349Z,91.98
2022-08-28T15:50:35.903Z,96.09
2022-08-28T15:53:04.046Z,96.20
2022-08-28T15:55:34.128Z,94.61
2022-08-28T15:58:03.982Z,96.51
2022-08-28T16:00:34.498Z,96.90
2022-08-28T16:03:01.709Z,92.88
2022-08-28T16:05:33.854Z,90.87
2022-08-28T16:08:06.491Z,94.94
2022-08-28T16:10:33.411Z,92.14
2022-08-28T16:13:01.246Z,93.41
2022-08-28T16:15:29.470Z,91.99
2022-08-28T16:17:57.041Z,94.35
2022-08-28T16:20:25.287Z,93.52
2022-08-28T16:22:53.086Z,94.44
2022-08-28T16:25:20.075Z,94.46
2022-08-28T16:27:46.945Z,89.88
2022-08-28T16:30:16.072Z,91.79
2022-08-28T16:32:46.597Z,92.75
2022-08-28T16:35:15.177Z,94.39
2022-08-28T16:37:43.019Z,93.73
2022-08-28T16:40:10.833Z,94.19
2022-08-28T16:42:38.682Z,93.66
2022-08-28T16:45:06.708Z,93.87
2022-08-28T16:47:35.733Z,94.96
2022-08-28T16:50:09.184Z,93.78
2022-08-28T16:52:36.263Z,94.68
2022-08-28T16:55:05.094Z,95.84
2022-08-28T16:57:32.295Z,92.87
2022-08-28T17:00:00.471Z,95.51
2022-08-28T17:02:28.087Z,96.70
2022-08-28T17:04:55.942Z,97.13
2022-08-28T17:07:23.007Z,91.37
2022-08-28T17:09:49.831Z,93.16
2022-08-28T17:12:16.914Z,95.72
2022-08-28T17:14:44.007Z,93.29
2022-08-28T17:17:11.067Z,94.54
2022-08-28T17:19:38.459Z,94.57
2022-08-28T17:22:25.094Z,97.02
2022-08-28T17:24:54.879Z,98.13
2022-08-28T17:27:22.780Z,96.42
2022-08-28T17:29:50.693Z,97.22
2022-08-28T17:32:17.750Z,99.19
2022-08-28T17:34:45.546Z,96.33
2022-08-28T17:37:13.180Z,97.59
2022-08-28T17:39:40.108Z,92.66
2022-08-28T17:42:07.180Z,97.75
2022-08-28T17:44:35.443Z,99.99
2022-08-28T17:47:02.813Z,100.00
2022-08-28T17:49:29.833Z,85.68
2022-08-28T17:51:56.899Z,84.68
2022-08-28T17:54:24.520Z,94.51
2022-08-28T17:56:53.162Z,97.80
2022-08-28T17:59:21.264Z,96.29
2022-08-28T18:01:49.643Z,99.32
2022-08-28T18:04:23.894Z,99.32
2022-08-28T18:06:54.293Z,98.14
2022-08-28T18:09:22.550Z,98.20
2022-08-28T18:11:49.901Z,98.71
2022-08-28T18:14:17.348Z,97.95
2022-08-28T18:16:44.454Z,97.83
2022-08-28T18:19:12.090Z,96.53
2022-08-28T18:21:39.587Z,94.97
2022-08-28T18:24:07.775Z,93.18
2022-08-28T18:26:34.721Z,95.50
2022-08-28T18:29:01.668Z,97.98
2022-08-28T18:31:28.819Z,96.88
2022-08-28T18:33:55.729Z,96.02
2022-08-28T18:36:23.366Z,96.28
2022-08-28T18:38:50.646Z,96.31
2022-08-28T18:41:20.274Z,95.99
2022-08-28T18:43:47.875Z,97.33
2022-08-28T18:46:14.912Z,96.35
2022-08-28T18:48:42.700Z,95.91
2022-08-28T18:51:12.207Z,96.46
2022-08-28T18:53:42.606Z,94.41
2022-08-28T18:56:12.229Z,94.82
2022-08-28T18:58:41.680Z,95.28
2022-08-28T19:01:09.986Z,95.65
2022-08-28T19:03:38.000Z,93.72
2022-08-28T19:06:06.467Z,95.18
2022-08-28T19:08:35.392Z,94.82
2022-08-28T19:11:07.832Z,95.36
2022-08-28T19:13:35.894Z,94.09
2022-08-28T19:16:03.327Z,95.10
2022-08-28T19:18:30.696Z,95.83
2022-08-28T19:21:09.353Z,95.06
2022-08-28T19:23:36.882Z,95.80
2022-08-28T19:26:04.062Z,97.04
2022-08-28T19:28:30.927Z,96.11
2022-08-28T19:30:57.906Z,96.43
2022-08-28T19:33:24.878Z,95.90
2022-08-28T19:35:51.974Z,95.10
2022-08-28T19:38:19.009Z,94.94
2022-08-28T19:40:46.015Z,95.35
2022-08-28T19:43:16.559Z,92.88
2022-08-28T19:45:45.339Z,93.20
2022-08-28T19:48:12.400Z,92.94
2022-08-28T19:50:39.651Z,93.21
2022-08-28T19:53:07.684Z,93.71
2022-08-28T19:55:34.657Z,93.14
2022-08-28T19:58:05.323Z,94.43
2022-08-28T20:00:33.114Z,95.01
2022-08-28T20:03:00.182Z,94.51
2022-08-28T20:05:27.219Z,94.31
2022-08-28T20:07:54.115Z,95.47
2022-08-28T20:10:21.517Z,94.92
2022-08-28T20:12:48.952Z,94.85
2022-08-28T20:15:17.871Z,95.03
2022-08-28T20:17:49.497Z,94.97
2022-08-28T20:20:30.030Z,95.02
2022-08-28T20:22:57.076Z,94.80
2022-08-28T20:25:24.000Z,94.73
2022-08-28T20:27:50.929Z,94.19
2022-08-28T20:30:18.314Z,94.45
2022-08-28T20:32:45.266Z,95.66
2022-08-28T20:35:13.504Z,94.83
2022-08-28T20:37:45.511Z,94.90
2022-08-28T20:40:19.367Z,92.96
2022-08-28T20:42:46.824Z,95.32
2022-08-28T20:45:15.720Z,95.32
2022-08-28T20:47:43.097Z,95.76
2022-08-28T20:50:11.203Z,94.16
2022-08-28T20:52:38.660Z,95.42
2022-08-28T20:55:07.816Z,95.15
2022-08-28T20:57:35.330Z,94.59
2022-08-28T21:00:05.632Z,94.21
2022-08-28T21:02:33.369Z,94.13
2022-08-28T21:05:01.155Z,93.64
2022-08-28T21:07:28.333Z,94.04
2022-08-28T21:10:05.506Z,93.48
2022-08-28T21:12:35.990Z,94.29
2022-08-28T21:15:03.661Z,93.38
2022-08-28T21:17:30.954Z,93.27
2022-08-28T21:20:04.241Z,93.32
2022-08-28T21:22:33.024Z,93.43
2022-08-28T21:25:02.853Z,93.53
2022-08-28T21:27:29.774Z,93.99
2022-08-28T21:29:58.668Z,93.94
2022-08-28T21:32:27.628Z,93.90
2022-08-28T21:34:55.308Z,93.69
2022-08-28T21:37:22.775Z,88.94
2022-08-28T21:39:49.766Z,91.75
2022-08-28T21:42:16.732Z,93.72
2022-08-28T21:44:51.261Z,93.95
2022-08-28T21:47:21.622Z,93.48
2022-08-28T21:49:58.152Z,93.97
2022-08-28T21:52:30.649Z,93.08
2022-08-28T21:54:59.940Z,92.87
2022-08-28T21:57:27.874Z,92.81
2022-08-28T21:59:55.538Z,92.29
2022-08-28T22:02:23.229Z,92.46
2022-08-28T22:04:50.497Z,92.73
2022-08-28T22:07:18.084Z,92.97
2022-08-28T22:09:45.426Z,93.36
2022-08-28T22:12:12.341Z,93.27
2022-08-28T22:14:39.275Z,93.31
2022-08-28T22:17:10.797Z,93.19
2022-08-28T22:19:39.478Z,93.05
2022-08-28T22:22:25.201Z,93.23
2022-08-28T22:24:52.111Z,93.27
2022-08-28T22:27:19.119Z,87.04
2022-08-28T22:29:46.116Z,91.86
2022-08-28T22:32:13.057Z,93.47
2022-08-28T22:34:46.323Z,92.82
2022-08-28T22:37:13.759Z,93.45
2022-08-28T22:39:42.108Z,93.07
2022-08-28T22:42:09.956Z,92.91
2022-08-28T22:44:37.355Z,92.52
2022-08-28T22:47:05.060Z,92.28
2022-08-28T22:49:32.065Z,92.80
2022-08-28T22:51:58.975Z,93.46
2022-08-28T22:54:26.646Z,92.52
2022-08-28T22:56:53.550Z,92.63
2022-08-28T22:59:20.477Z,92.74
2022-08-28T23:01:47.471Z,91.67
2022-08-28T23:04:14.448Z,93.16
2022-08-28T23:06:41.438Z,92.71
2022-08-28T23:09:08.904Z,92.14
2022-08-28T23:11:36.703Z,91.74
2022-08-28T23:14:05.550Z,91.12
2022-08-28T23:16:33.572Z,91.26
2022-08-28T23:19:13.355Z,90.64
2022-08-28T23:21:43.650Z,90.54
2022-08-28T23:24:11.633Z,90.36
2022-08-28T23:26:38.542Z,90.46
2022-08-28T23:29:05.805Z,90.42
2022-08-28T23:31:32.756Z,90.43
2022-08-28T23:34:00.087Z,90.74
2022-08-28T23:36:27.022Z,90.73
2022-08-28T23:38:53.990Z,90.80
2022-08-28T23:41:21.429Z,90.32
2022-08-28T23:43:49.167Z,89.93
2022-08-28T23:46:17.799Z,89.33
2022-08-28T23:48:45.580Z,90.41
2022-08-28T23:51:16.553Z,89.80
2022-08-28T23:53:44.039Z,90.80
2022-08-28T23:56:12.935Z,90.05
2022-08-28T23:58:40.360Z,89.60
